Terminal Aerodrome Forecast
Issued by NWS Sioux Falls, SD

Home | Current Version | Previous Version | Text Only | Print | Product List | Glossary On
Versions: 1 2 3 4 5 6 7 8 9 10 11 12 13 14 15
000
FTUS43 KFSD 050524
TAFHON
TAF
KHON 050524Z 0506/0606 14011KT P6SM SCT070 SCT250
     FM051400 15012KT P6SM SCT120 BKN250
     FM051700 18012KT P6SM VCSH BKN100
     FM052100 17008KT P6SM SCT060 BKN120=

USA.gov is the U.S. government's official web portal to all federal, state and local government web resources and services.